createdAt,value
2019-05-13T00:01:23.844Z,6.80
2019-05-13T00:04:28.312Z,6.86
2019-05-13T00:07:34.221Z,6.92
2019-05-13T00:10:38.781Z,6.85
2019-05-13T00:13:44.376Z,6.56
2019-05-13T00:16:49.190Z,6.51
2019-05-13T00:19:53.632Z,6.35
2019-05-13T00:22:58.349Z,6.35
2019-05-13T00:26:03.847Z,6.43
2019-05-13T00:29:08.931Z,6.50
2019-05-13T00:32:13.610Z,6.53
2019-05-13T00:35:18.606Z,6.50
2019-05-13T00:38:24.545Z,6.71
2019-05-13T00:41:29.499Z,6.78
2019-05-13T00:44:34.244Z,6.76
2019-05-13T00:47:39.068Z,6.60
2019-05-13T00:50:44.233Z,6.44
2019-05-13T00:53:49.014Z,6.39
2019-05-13T00:56:54.795Z,6.34
2019-05-13T00:59:59.362Z,6.31
2019-05-13T01:03:04.338Z,6.28
2019-05-13T01:06:09.084Z,6.26
2019-05-13T01:09:14.495Z,6.33
2019-05-13T01:12:19.106Z,6.28
2019-05-13T01:15:24.745Z,6.19
2019-05-13T01:18:29.366Z,6.15
2019-05-13T01:21:34.616Z,6.06
2019-05-13T01:24:39.199Z,6.16
2019-05-13T01:27:44.604Z,6.19
2019-05-13T01:30:49.283Z,6.45
2019-05-13T01:33:53.851Z,6.47
2019-05-13T01:36:58.642Z,6.36
2019-05-13T01:40:05.083Z,6.32
2019-05-13T01:43:09.947Z,6.14
2019-05-13T01:46:14.677Z,6.02
2019-05-13T01:49:19.114Z,6.00
2019-05-13T01:52:23.851Z,6.05
2019-05-13T01:55:28.457Z,6.27
2019-05-13T01:58:33.999Z,6.15
2019-05-13T02:01:39.494Z,6.20
2019-05-13T02:04:44.187Z,6.13
2019-05-13T02:07:57.723Z,6.07
2019-05-13T02:10:56.461Z,5.98
2019-05-13T02:14:01.150Z,5.92
2019-05-13T02:17:05.593Z,5.86
2019-05-13T02:20:10.086Z,5.78
2019-05-13T02:23:14.829Z,5.83
2019-05-13T02:26:19.562Z,5.77
2019-05-13T02:29:24.499Z,5.80
2019-05-13T02:32:32.669Z,5.77
2019-05-13T02:35:35.553Z,5.84
2019-05-13T02:38:42.808Z,5.91
2019-05-13T02:41:46.816Z,6.09
2019-05-13T02:44:52.919Z,6.04
2019-05-13T02:47:57.690Z,6.00
2019-05-13T02:51:03.731Z,6.00
2019-05-13T02:54:08.289Z,5.95
2019-05-13T02:57:13.044Z,5.87
2019-05-13T03:00:18.259Z,6.01
2019-05-13T03:03:23.483Z,5.94
2019-05-13T03:06:28.634Z,5.86
2019-05-13T03:09:33.069Z,5.76
2019-05-13T03:12:37.797Z,5.72
2019-05-13T03:15:43.881Z,5.84
2019-05-13T03:18:48.382Z,5.67
2019-05-13T03:21:52.982Z,5.57
2019-05-13T03:24:58.021Z,5.46
2019-05-13T03:28:03.380Z,5.35
2019-05-13T03:31:08.239Z,5.31
2019-05-13T03:34:15.522Z,5.35
2019-05-13T03:37:25.347Z,5.15
2019-05-13T03:40:27.940Z,5.21
2019-05-13T03:43:33.939Z,5.11
2019-05-13T03:46:42.555Z,5.10
2019-05-13T03:49:47.709Z,5.03
2019-05-13T03:52:52.586Z,5.04
2019-05-13T03:55:58.128Z,4.88
2019-05-13T03:59:03.073Z,4.88
2019-05-13T04:02:07.669Z,4.83
2019-05-13T04:05:13.885Z,4.90
2019-05-13T04:08:18.310Z,4.75
2019-05-13T04:11:23.981Z,4.78
2019-05-13T04:14:28.895Z,4.70
2019-05-13T04:17:33.328Z,4.87
2019-05-13T04:20:38.030Z,4.89
2019-05-13T04:23:43.155Z,4.94
2019-05-13T04:26:47.875Z,4.90
2019-05-13T04:29:52.957Z,5.09
2019-05-13T04:32:57.384Z,5.05
2019-05-13T04:36:02.742Z,4.99
2019-05-13T04:39:07.970Z,5.00
2019-05-13T04:42:12.695Z,5.12
2019-05-13T04:45:17.206Z,5.09
2019-05-13T04:48:23.067Z,5.17
2019-05-13T04:51:27.756Z,5.43
2019-05-13T04:54:33.163Z,5.43
2019-05-13T04:57:38.120Z,5.61
2019-05-13T05:01:24.914Z,5.56
2019-05-13T05:04:43.546Z,5.60
2019-05-13T05:08:23.111Z,5.85
2019-05-13T05:12:02.527Z,5.98
2019-05-13T05:15:17.296Z,6.07
2019-05-13T05:18:47.440Z,6.20
2019-05-13T05:21:56.821Z,6.16
2019-05-13T05:25:22.053Z,6.36
2019-05-13T05:29:04.222Z,6.46
2019-05-13T05:33:02.152Z,6.57
2019-05-13T05:36:33.030Z,6.88
2019-05-13T05:39:38.892Z,7.18
2019-05-13T05:42:44.943Z,7.37
2019-05-13T05:45:51.269Z,7.46
2019-05-13T05:48:57.181Z,7.41
2019-05-13T05:52:06.818Z,7.46
2019-05-13T05:55:11.896Z,7.58
2019-05-13T05:58:17.938Z,7.72
2019-05-13T06:01:25.043Z,8.00
2019-05-13T06:04:32.485Z,8.25
2019-05-13T06:07:37.437Z,8.55
2019-05-13T06:10:49.912Z,8.83
2019-05-13T06:13:52.163Z,9.03
2019-05-13T06:16:55.419Z,9.29
2019-05-13T06:20:03.283Z,9.38
2019-05-13T06:23:07.236Z,9.54
2019-05-13T06:26:12.577Z,9.79
2019-05-13T06:29:17.186Z,9.96
2019-05-13T06:32:26.086Z,10.32
2019-05-13T06:35:28.183Z,10.64
2019-05-13T06:38:32.943Z,10.79
2019-05-13T06:41:37.377Z,11.12
2019-05-13T06:44:42.211Z,11.43
2019-05-13T06:47:46.727Z,11.73
2019-05-13T06:50:52.090Z,11.99
2019-05-13T06:53:56.794Z,12.30
2019-05-13T06:57:04.615Z,12.61
2019-05-13T07:00:08.909Z,12.72
2019-05-13T07:03:13.354Z,13.03
2019-05-13T07:06:18.082Z,13.37
2019-05-13T07:09:22.530Z,13.59
2019-05-13T07:12:26.964Z,13.80
2019-05-13T07:15:31.765Z,13.74
2019-05-13T07:18:36.485Z,13.77
2019-05-13T07:21:41.721Z,13.77
2019-05-13T07:24:46.451Z,13.16
2019-05-13T07:27:53.217Z,13.44
2019-05-13T07:30:57.668Z,13.47
2019-05-13T07:34:02.457Z,13.09
2019-05-13T07:37:06.926Z,13.46
2019-05-13T07:40:11.755Z,13.89
2019-05-13T07:43:16.327Z,13.93
2019-05-13T07:46:21.833Z,13.58
2019-05-13T07:49:26.416Z,13.63
2019-05-13T07:52:31.914Z,13.76
2019-05-13T07:55:36.837Z,13.97
2019-05-13T07:58:42.006Z,14.31
2019-05-13T08:01:46.931Z,14.61
2019-05-13T08:04:53.032Z,14.84
2019-05-13T08:07:57.538Z,14.10
2019-05-13T08:11:01.988Z,14.15
2019-05-13T08:14:06.419Z,14.06
2019-05-13T08:17:11.664Z,13.83
2019-05-13T08:20:16.742Z,14.02
2019-05-13T08:23:21.745Z,14.31
2019-05-13T08:26:26.744Z,14.44
2019-05-13T08:29:32.856Z,14.34
2019-05-13T08:32:37.585Z,14.51
2019-05-13T08:35:47.024Z,14.87
2019-05-13T08:38:51.745Z,15.14
2019-05-13T08:42:04.144Z,15.35
2019-05-13T08:45:02.200Z,15.66
2019-05-13T08:48:06.677Z,15.88
2019-05-13T08:51:11.744Z,16.00
2019-05-13T08:54:16.356Z,16.27
2019-05-13T08:57:22.133Z,16.02
2019-05-13T09:00:54.319Z,16.17
2019-05-13T09:04:01.970Z,16.46
2019-05-13T09:07:05.081Z,16.54
2019-05-13T09:10:12.210Z,16.65
2019-05-13T09:13:15.898Z,16.28
2019-05-13T09:16:21.467Z,15.61
2019-05-13T09:19:25.963Z,15.68
2019-05-13T09:22:31.870Z,15.49
2019-05-13T09:25:36.420Z,15.62
2019-05-13T09:28:41.738Z,15.88
2019-05-13T09:31:46.704Z,16.19
2019-05-13T09:34:52.486Z,16.41
2019-05-13T09:37:57.229Z,16.35
2019-05-13T09:41:02.051Z,16.79
2019-05-13T09:44:07.070Z,17.02
2019-05-13T09:47:12.509Z,17.02
2019-05-13T09:50:28.395Z,17.12
2019-05-13T09:53:23.934Z,17.40
2019-05-13T09:56:28.368Z,16.55
2019-05-13T09:59:32.807Z,16.08
2019-05-13T10:02:37.604Z,15.90
2019-05-13T10:05:42.058Z,15.75
2019-05-13T10:08:46.489Z,15.86
2019-05-13T10:11:51.958Z,16.43
2019-05-13T10:14:56.930Z,16.49
2019-05-13T10:18:01.845Z,16.85
2019-05-13T10:21:06.800Z,16.83
2019-05-13T10:24:12.605Z,17.24
2019-05-13T10:27:19.043Z,17.30
2019-05-13T10:30:23.718Z,16.42
2019-05-13T10:33:28.311Z,16.79
2019-05-13T10:36:33.023Z,16.98
2019-05-13T10:39:37.475Z,16.97
2019-05-13T10:42:43.326Z,16.95
2019-05-13T10:45:48.442Z,16.76
2019-05-13T10:48:53.175Z,16.80
2019-05-13T10:51:57.678Z,16.89
2019-05-13T10:55:02.435Z,16.94
2019-05-13T10:58:07.376Z,17.54
2019-05-13T11:01:11.884Z,17.89
2019-05-13T11:04:16.625Z,18.31
2019-05-13T11:07:22.516Z,18.57
2019-05-13T11:10:32.744Z,18.68
2019-05-13T11:13:52.128Z,18.82
2019-05-13T11:16:43.489Z,18.95
2019-05-13T11:19:48.257Z,18.54
2019-05-13T11:22:52.994Z,18.30
2019-05-13T11:25:57.424Z,18.40
2019-05-13T11:29:02.791Z,18.40
2019-05-13T11:32:07.389Z,18.07
2019-05-13T11:35:12.991Z,18.19
2019-05-13T11:38:17.596Z,18.07
2019-05-13T11:41:23.069Z,18.18
2019-05-13T11:44:28.052Z,18.49
2019-05-13T11:47:32.489Z,17.96
2019-05-13T11:50:36.935Z,18.53
2019-05-13T11:53:41.790Z,18.95
2019-05-13T11:56:49.770Z,18.55
2019-05-13T11:59:53.009Z,18.45
2019-05-13T12:02:57.551Z,18.65
2019-05-13T12:06:02.614Z,18.23
2019-05-13T12:09:12.727Z,17.46
2019-05-13T12:12:16.157Z,17.39
2019-05-13T12:15:28.754Z,17.12
2019-05-13T12:18:27.165Z,16.84
2019-05-13T12:21:31.596Z,16.67
2019-05-13T12:24:36.055Z,17.05
2019-05-13T12:27:41.933Z,17.31
2019-05-13T12:30:46.581Z,17.71
2019-05-13T12:33:52.218Z,18.04
2019-05-13T12:36:57.151Z,17.82
2019-05-13T12:40:03.238Z,17.91
2019-05-13T12:43:08.292Z,18.27
2019-05-13T12:46:13.009Z,18.16
2019-05-13T12:49:17.448Z,18.13
2019-05-13T12:52:22.894Z,18.63
2019-05-13T12:55:27.574Z,18.09
2019-05-13T12:58:33.825Z,17.50
2019-05-13T13:01:38.195Z,18.18
2019-05-13T13:05:07.988Z,18.56
2019-05-13T13:08:13.591Z,18.22
2019-05-13T13:10:55.992Z,18.17
2019-05-13T13:14:05.326Z,17.74
2019-05-13T13:17:06.603Z,18.35
2019-05-13T13:20:14.892Z,18.47
2019-05-13T13:23:17.743Z,17.86
2019-05-13T13:26:22.493Z,17.73
2019-05-13T13:29:26.936Z,17.90
2019-05-13T13:32:33.078Z,17.37
2019-05-13T13:35:37.839Z,17.41
2019-05-13T13:38:43.707Z,17.28
2019-05-13T13:41:48.452Z,17.40
2019-05-13T13:44:54.065Z,17.99
2019-05-13T13:48:03.658Z,18.53
2019-05-13T13:51:05.400Z,18.69
2019-05-13T13:54:10.314Z,17.90
2019-05-13T13:57:15.021Z,17.71
2019-05-13T14:00:34.657Z,17.45
2019-05-13T14:03:26.532Z,17.80
2019-05-13T14:09:37.736Z,18.85
2019-05-13T14:12:42.204Z,18.02
2019-05-13T14:15:46.902Z,17.28
2019-05-13T14:18:52.362Z,17.24
2019-05-13T14:21:57.247Z,17.01
2019-05-13T14:25:01.683Z,17.53
2019-05-13T14:28:06.125Z,17.87
2019-05-13T14:31:12.906Z,18.30
2019-05-13T14:34:17.339Z,18.20
2019-05-13T14:37:22.390Z,18.27
2019-05-13T14:40:26.902Z,18.36
2019-05-13T14:43:31.846Z,18.76
2019-05-13T14:46:47.237Z,19.10
2019-05-13T14:49:42.646Z,19.04
2019-05-13T14:52:47.095Z,19.20
2019-05-13T14:55:51.908Z,19.02
2019-05-13T14:58:56.471Z,18.95
2019-05-13T15:02:01.457Z,18.53
2019-05-13T15:05:06.254Z,18.73
2019-05-13T15:08:10.692Z,18.73
2019-05-13T15:11:15.408Z,18.44
2019-05-13T15:14:21.967Z,18.73
2019-05-13T15:17:26.334Z,19.01
2019-05-13T15:20:33.087Z,19.22
2019-05-13T15:23:37.325Z,19.02
2019-05-13T15:26:42.289Z,18.36
2019-05-13T15:29:47.092Z,18.29
2019-05-13T15:32:52.506Z,17.43
2019-05-13T15:35:57.579Z,17.91
2019-05-13T15:39:02.029Z,18.01
2019-05-13T15:42:06.475Z,17.96
2019-05-13T15:45:12.481Z,17.66
2019-05-13T15:48:17.063Z,17.63
2019-05-13T15:51:22.230Z,16.99
2019-05-13T15:54:26.977Z,17.02
2019-05-13T15:57:31.868Z,16.84
2019-05-13T16:00:36.650Z,17.17
2019-05-13T16:03:41.625Z,17.13
2019-05-13T16:06:46.102Z,17.25
2019-05-13T16:09:52.655Z,16.87
2019-05-13T16:12:56.731Z,17.10
2019-05-13T16:16:01.692Z,16.82
2019-05-13T16:19:06.298Z,16.62
2019-05-13T16:22:11.881Z,16.59
2019-05-13T16:25:16.644Z,16.74
2019-05-13T16:28:21.090Z,16.73
2019-05-13T16:31:25.531Z,16.13
2019-05-13T16:34:31.933Z,16.28
2019-05-13T16:37:36.441Z,16.33
2019-05-13T16:40:42.359Z,16.52
2019-05-13T16:43:46.888Z,16.85
2019-05-13T16:46:51.579Z,16.97
2019-05-13T16:49:56.350Z,17.00
2019-05-13T16:53:01.945Z,17.08
2019-05-13T16:56:06.511Z,17.15
2019-05-13T16:59:10.950Z,17.18
2019-05-13T17:02:15.395Z,17.11
2019-05-13T17:05:20.300Z,17.03
2019-05-13T17:08:24.741Z,17.06
2019-05-13T17:11:29.179Z,16.79
2019-05-13T17:14:33.621Z,16.68
2019-05-13T17:17:38.306Z,16.58
2019-05-13T17:20:42.738Z,16.33
2019-05-13T17:23:47.554Z,16.23
2019-05-13T17:26:52.309Z,16.21
2019-05-13T17:29:56.984Z,16.28
2019-05-13T17:33:02.244Z,16.04
2019-05-13T17:36:07.095Z,16.07
2019-05-13T17:39:12.568Z,15.89
2019-05-13T17:42:17.477Z,15.91
2019-05-13T17:45:22.104Z,15.82
2019-05-13T17:48:29.478Z,15.70
2019-05-13T17:51:32.679Z,15.64
2019-05-13T17:54:37.125Z,15.59
2019-05-13T17:57:41.644Z,15.55
2019-05-13T18:00:46.348Z,15.48
2019-05-13T18:03:51.739Z,15.37
2019-05-13T18:06:58.728Z,15.19
2019-05-13T18:10:02.566Z,15.21
2019-05-13T18:13:07.000Z,15.15
2019-05-13T18:16:12.527Z,15.05
2019-05-13T18:19:17.523Z,14.94
2019-05-13T18:22:22.248Z,14.85
2019-05-13T18:25:26.708Z,14.77
2019-05-13T18:28:31.668Z,14.62
2019-05-13T18:31:36.539Z,14.50
2019-05-13T18:34:41.276Z,14.47
2019-05-13T18:37:45.999Z,14.45
2019-05-13T18:40:52.641Z,14.39
2019-05-13T18:43:57.206Z,14.53
2019-05-13T18:47:01.830Z,14.30
2019-05-13T18:50:07.611Z,14.18
2019-05-13T18:53:12.432Z,14.05
2019-05-13T18:56:17.148Z,13.91
2019-05-13T18:59:21.883Z,13.86
2019-05-13T19:02:26.619Z,13.78
2019-05-13T19:05:31.720Z,13.73
2019-05-13T19:08:36.790Z,13.67
2019-05-13T19:11:42.721Z,13.57
2019-05-13T19:14:47.454Z,13.60
2019-05-13T19:17:52.623Z,13.35
2019-05-13T19:20:57.070Z,13.32
2019-05-13T19:24:02.113Z,13.26
2019-05-13T19:27:07.018Z,13.28
2019-05-13T19:30:12.392Z,13.25
2019-05-13T19:33:17.197Z,13.30
2019-05-13T19:36:21.637Z,13.12
2019-05-13T19:39:26.074Z,13.08
2019-05-13T19:42:31.380Z,13.08
2019-05-13T19:45:35.941Z,13.10
2019-05-13T19:48:41.684Z,13.00
2019-05-13T19:51:46.614Z,12.97
2019-05-13T19:54:51.493Z,12.91
2019-05-13T19:57:56.173Z,12.86
2019-05-13T20:01:00.625Z,12.79
2019-05-13T20:04:05.352Z,12.69
2019-05-13T20:07:11.881Z,12.62
2019-05-13T20:10:16.245Z,12.56
2019-05-13T20:13:21.808Z,12.55
2019-05-13T20:16:26.298Z,12.44
2019-05-13T20:19:46.174Z,12.32
2019-05-13T20:22:36.903Z,12.29
2019-05-13T20:25:41.836Z,12.11
2019-05-13T20:28:46.393Z,12.03
2019-05-13T20:31:51.836Z,11.85
2019-05-13T20:34:56.360Z,11.69
2019-05-13T20:38:02.236Z,11.72
2019-05-13T20:41:06.866Z,11.81
2019-05-13T20:44:11.318Z,11.81
2019-05-13T20:47:16.068Z,11.82
2019-05-13T20:50:21.818Z,11.89
2019-05-13T20:53:26.301Z,11.91
2019-05-13T20:56:31.743Z,11.93
2019-05-13T20:59:36.622Z,11.94
2019-05-13T21:02:41.811Z,11.89
2019-05-13T21:05:46.290Z,11.91
2019-05-13T21:08:52.191Z,11.87
2019-05-13T21:11:57.193Z,11.90
2019-05-13T21:15:01.922Z,11.83
2019-05-13T21:18:06.647Z,11.79
2019-05-13T21:21:11.714Z,11.78
2019-05-13T21:24:16.409Z,11.78
2019-05-13T21:27:20.921Z,11.64
2019-05-13T21:30:25.678Z,11.58
2019-05-13T21:33:31.523Z,11.38
2019-05-13T21:36:36.151Z,11.37
2019-05-13T21:39:41.264Z,11.15
2019-05-13T21:42:46.165Z,10.85
2019-05-13T21:45:52.364Z,10.63
2019-05-13T21:48:56.998Z,10.41
2019-05-13T21:52:01.754Z,10.23
2019-05-13T21:55:07.637Z,9.97
2019-05-13T21:58:14.213Z,9.71
2019-05-13T22:01:23.104Z,9.59
2019-05-13T22:04:25.177Z,9.41
2019-05-13T22:07:31.528Z,9.41
2019-05-13T22:10:36.034Z,9.26
2019-05-13T22:13:41.912Z,9.18
2019-05-13T22:16:46.869Z,9.20
2019-05-13T22:19:51.380Z,9.30
2019-05-13T22:22:55.810Z,9.41
2019-05-13T22:26:01.632Z,9.41
2019-05-13T22:29:06.364Z,9.39
2019-05-13T22:32:11.445Z,9.36
2019-05-13T22:35:16.129Z,9.37
2019-05-13T22:38:21.394Z,9.35
2019-05-13T22:41:26.249Z,9.30
2019-05-13T22:44:32.446Z,9.26
2019-05-13T22:47:36.843Z,9.27
2019-05-13T22:50:42.728Z,9.30
2019-05-13T22:53:47.161Z,9.10
2019-05-13T22:56:52.319Z,9.01
2019-05-13T22:59:57.194Z,8.91
2019-05-13T23:03:01.895Z,8.92
2019-05-13T23:06:06.448Z,8.80
2019-05-13T23:09:12.532Z,8.81
2019-05-13T23:12:17.086Z,8.79
2019-05-13T23:15:21.539Z,8.81
2019-05-13T23:18:25.965Z,8.72
2019-05-13T23:21:31.302Z,8.73
2019-05-13T23:24:35.936Z,8.73
2019-05-13T23:27:41.565Z,8.60
2019-05-13T23:30:46.347Z,8.43
2019-05-13T23:33:50.806Z,8.35
2019-05-13T23:36:55.241Z,8.11
2019-05-13T23:40:01.445Z,8.03
2019-05-13T23:43:06.198Z,7.92
2019-05-13T23:46:11.752Z,7.85
2019-05-13T23:49:16.683Z,7.82
2019-05-13T23:52:22.002Z,7.83
2019-05-13T23:55:27.066Z,7.68
2019-05-13T23:58:32.145Z,7.53
